Time;durP1;ratioP1;P1;durP2;ratioP2;P2;SDS_P1;SDS_P2;PMS_P1;PMS_P2;Temp;Humidity;BMP_temperature;BMP_pressure;BME280_temperature;BME280_humidity;BME280_pressure;Samples;Min_cycle;Max_cycle;Signal;HPM_P1;HPM_P2
2021/01/18 00:00:35;;;;;;;20.33;11.32;;;-9.30;55.20;;;;;;5055534;28;20032;-66
2021/01/18 00:03:05;;;;;;;27.73;14.13;;;-9.30;55.20;;;;;;5055330;28;20504;-65
2021/01/18 00:05:31;;;;;;;31.35;17.67;;;-9.30;55.20;;;;;;5054410;28;20419;-66
2021/01/18 00:07:57;;;;;;;35.42;17.70;;;-9.30;55.30;;;;;;5058726;28;20151;-66
2021/01/18 00:10:24;;;;;;;34.25;16.60;;;-9.30;55.30;;;;;;5064067;28;20162;-66
2021/01/18 00:12:52;;;;;;;26.05;14.05;;;-9.30;55.30;;;;;;5055342;28;20461;-66
2021/01/18 00:15:21;;;;;;;27.38;15.15;;;-9.30;55.30;;;;;;5055186;28;20031;-65
2021/01/18 00:17:47;;;;;;;25.48;13.30;;;-9.40;55.30;;;;;;5055237;28;20423;-65
2021/01/18 00:20:14;;;;;;;20.40;11.52;;;-9.40;55.40;;;;;;5058194;28;20078;-65
2021/01/18 00:22:41;;;;;;;27.33;14.33;;;-9.40;55.40;;;;;;5065641;28;20408;-66
2021/01/18 00:25:12;;;;;;;20.77;11.18;;;-9.40;55.40;;;;;;5055045;28;20029;-66
2021/01/18 00:27:38;;;;;;;28.48;13.07;;;-9.40;55.30;;;;;;5055170;28;20024;-65
2021/01/18 00:30:19;;;;;;;20.15;13.05;;;-9.40;55.30;;;;;;5055015;28;20495;-66
2021/01/18 00:32:45;;;;;;;20.05;11.40;;;-9.50;55.20;;;;;;5068840;28;20017;-65
2021/01/18 00:35:13;;;;;;;15.47;10.30;;;-9.50;55.20;;;;;;5063049;28;20488;-65
2021/01/18 00:37:59;;;;;;;27.92;16.17;;;-9.50;55.40;;;;;;5054745;28;20416;-66
2021/01/18 00:40:25;;;;;;;27.15;17.10;;;-9.50;55.60;;;;;;5054649;28;20500;-66
2021/01/18 00:42:52;;;;;;;32.63;17.63;;;-9.60;55.50;;;;;;5054614;28;20024;-65
2021/01/18 00:45:20;;;;;;;30.42;17.27;;;-9.60;55.60;;;;;;5053373;28;20029;-66
2021/01/18 00:47:52;;;;;;;29.67;17.27;;;-9.60;55.60;;;;;;5057126;28;20033;-65
2021/01/18 00:50:23;;;;;;;29.70;16.23;;;-9.60;55.60;;;;;;5054671;28;20021;-65
2021/01/18 00:52:51;;;;;;;30.23;17.15;;;-9.70;55.50;;;;;;5054554;28;20017;-65
2021/01/18 00:55:18;;;;;;;30.58;17.20;;;-9.70;55.60;;;;;;5054549;28;20057;-66
2021/01/18 00:57:45;;;;;;;28.77;16.35;;;-9.70;55.60;;;;;;5054281;28;20416;-66
2021/01/18 01:00:14;;;;;;;31.50;16.95;;;-9.70;55.60;;;;;;5054532;28;20040;-66
2021/01/18 01:02:41;;;;;;;29.52;17.25;;;-9.70;55.60;;;;;;5059628;28;20029;-65
2021/01/18 01:05:09;;;;;;;28.40;15.07;;;-9.80;55.60;;;;;;5054251;28;20028;-65
2021/01/18 01:07:46;;;;;;;29.27;15.93;;;-9.80;55.70;;;;;;5056199;28;20081;-66
2021/01/18 01:10:15;;;;;;;27.73;16.15;;;-9.80;55.60;;;;;;5054068;28;20032;-65
2021/01/18 01:12:41;;;;;;;29.77;16.95;;;-9.80;55.70;;;;;;5054181;28;20118;-66
2021/01/18 01:15:09;;;;;;;34.75;15.90;;;-9.80;55.70;;;;;;5054036;28;20063;-66
2021/01/18 01:17:44;;;;;;;31.13;16.30;;;-9.80;55.70;;;;;;5072928;28;20115;-65
2021/01/18 01:20:11;;;;;;;28.20;16.58;;;-9.80;55.70;;;;;;5055797;28;20029;-66
2021/01/18 01:22:41;;;;;;;32.08;17.08;;;-9.80;55.70;;;;;;5053966;28;20037;-65
2021/01/18 01:25:12;;;;;;;32.83;17.35;;;-9.80;55.70;;;;;;5053802;28;20036;-66
2021/01/18 01:27:38;;;;;;;31.70;17.40;;;-9.80;55.70;;;;;;5053957;28;20487;-65
2021/01/18 01:30:06;;;;;;;31.38;16.80;;;-9.80;55.70;;;;;;5052469;28;20029;-65
2021/01/18 01:32:32;;;;;;;31.98;18.48;;;-9.80;55.70;;;;;;5061176;28;20090;-65
2021/01/18 01:34:57;;;;;;;27.33;16.30;;;-9.80;55.90;;;;;;5058923;28;20044;-66
2021/01/18 01:37:23;;;;;;;30.10;17.05;;;-9.80;55.90;;;;;;5055530;28;20032;-65
2021/01/18 01:39:49;;;;;;;31.55;16.02;;;-9.80;55.90;;;;;;5053782;28;20029;-65
2021/01/18 01:42:22;;;;;;;31.35;16.40;;;-9.80;55.90;;;;;;5070521;28;20027;-65
2021/01/18 01:44:49;;;;;;;27.75;15.52;;;-9.80;56.00;;;;;;5068477;28;20093;-66
2021/01/18 01:47:31;;;;;;;28.85;15.65;;;-9.80;55.90;;;;;;5057559;28;20021;-65
2021/01/18 01:50:00;;;;;;;30.35;17.38;;;-9.80;56.00;;;;;;5052619;28;20018;-65
2021/01/18 01:52:28;;;;;;;29.85;16.00;;;-9.90;56.10;;;;;;5053385;28;20075;-66
2021/01/18 01:55:00;;;;;;;34.03;17.27;;;-9.90;56.00;;;;;;5062825;28;20050;-65
2021/01/18 01:57:28;;;;;;;29.85;15.98;;;-9.90;56.00;;;;;;5071357;28;20036;-65
2021/01/18 01:59:55;;;;;;;31.77;17.77;;;-9.90;56.00;;;;;;5053316;28;20029;-65
2021/01/18 02:02:21;;;;;;;32.83;17.52;;;-9.90;56.00;;;;;;5053504;28;20047;-66
2021/01/18 02:04:47;;;;;;;31.08;16.17;;;-9.90;56.10;;;;;;5067004;28;20021;-65
2021/01/18 02:07:29;;;;;;;30.42;15.73;;;-9.90;56.10;;;;;;5057845;28;20020;-66
2021/01/18 02:09:55;;;;;;;27.65;15.65;;;-10.00;56.00;;;;;;5053044;28;20017;-66
2021/01/18 02:12:22;;;;;;;30.88;15.55;;;-10.00;56.10;;;;;;5053088;28;20037;-66
2021/01/18 02:15:09;;;;;;;24.83;14.85;;;-10.00;56.10;;;;;;5052954;28;20032;-66
2021/01/18 02:17:53;;;;;;;34.08;15.80;;;-10.00;56.10;;;;;;5052993;28;20043;-66
2021/01/18 02:20:46;;;;;;;26.77;14.65;;;-10.00;56.10;;;;;;5052993;28;20036;-66
2021/01/18 02:23:33;;;;;;;23.83;13.60;;;-10.10;56.10;;;;;;5052850;28;20705;-65
2021/01/18 02:26:27;;;;;;;22.85;14.15;;;-10.10;56.10;;;;;;5052954;28;20111;-66
2021/01/18 02:29:07;;;;;;;30.15;15.50;;;-10.10;56.10;;;;;;5048243;28;20048;-65
2021/01/18 02:31:51;;;;;;;23.90;13.95;;;-10.10;56.20;;;;;;5052728;28;20028;-66
2021/01/18 02:34:19;;;;;;;26.15;13.82;;;-10.10;56.20;;;;;;5052676;28;20473;-66
2021/01/18 02:36:54;;;;;;;27.80;15.32;;;-10.10;56.20;;;;;;5053012;28;20041;-66
2021/01/18 02:39:29;;;;;;;26.45;14.57;;;-10.10;56.20;;;;;;5063004;28;20036;-65
2021/01/18 02:42:04;;;;;;;24.80;12.88;;;-10.10;56.20;;;;;;5055490;28;20087;-66
2021/01/18 02:44:30;;;;;;;23.60;13.10;;;-10.10;56.20;;;;;;5052675;28;20044;-66
2021/01/18 02:46:59;;;;;;;24.20;14.05;;;-10.10;56.30;;;;;;5051280;28;20032;-65
2021/01/18 02:49:25;;;;;;;23.30;12.70;;;-10.10;56.30;;;;;;5052702;28;20025;-65
2021/01/18 02:52:00;;;;;;;30.08;15.02;;;-10.10;56.20;;;;;;5052558;28;20150;-65
2021/01/18 02:54:26;;;;;;;22.30;13.32;;;-10.10;56.20;;;;;;5052705;28;20427;-65
2021/01/18 02:56:52;;;;;;;25.05;13.02;;;-10.10;56.20;;;;;;5052489;28;20036;-66
2021/01/18 02:59:19;;;;;;;22.63;14.50;;;-10.10;56.30;;;;;;5053767;28;20070;-65
2021/01/18 03:02:12;;;;;;;19.77;11.57;;;-10.10;56.30;;;;;;5052602;28;20032;-66
2021/01/18 03:04:46;;;;;;;25.65;14.40;;;-10.10;56.40;;;;;;5052615;28;20025;-66
2021/01/18 03:07:18;;;;;;;24.63;14.23;;;-10.00;56.40;;;;;;5057669;28;20025;-65
2021/01/18 03:09:53;;;;;;;26.05;13.93;;;-10.00;56.40;;;;;;5052386;28;20018;-65
2021/01/18 03:12:22;;;;;;;28.60;16.02;;;-10.00;56.30;;;;;;5063964;28;20028;-66
2021/01/18 03:14:52;;;;;;;27.45;15.57;;;-10.10;56.20;;;;;;5054342;28;20028;-65
2021/01/18 03:17:26;;;;;;;29.07;16.40;;;-10.10;56.20;;;;;;5052337;28;20029;-66
2021/01/18 03:19:53;;;;;;;26.42;16.27;;;-10.10;56.50;;;;;;5066382;28;20021;-65
2021/01/18 03:22:22;;;;;;;27.50;15.82;;;-10.10;56.50;;;;;;5052451;28;20033;-66
2021/01/18 03:24:48;;;;;;;27.07;15.10;;;-10.10;56.60;;;;;;5066226;28;20099;-65
2021/01/18 03:27:14;;;;;;;22.58;13.05;;;-10.10;56.50;;;;;;5052354;28;20102;-66
2021/01/18 03:29:41;;;;;;;27.90;14.67;;;-10.10;56.50;;;;;;5052220;28;20025;-66
2021/01/18 03:32:06;;;;;;;22.13;13.25;;;-10.10;56.60;;;;;;5051042;28;20115;-66
2021/01/18 03:34:33;;;;;;;23.35;13.68;;;-10.00;56.70;;;;;;5052049;28;20105;-66
2021/01/18 03:36:59;;;;;;;21.55;12.55;;;-10.00;56.70;;;;;;5052458;28;20040;-65
2021/01/18 03:39:25;;;;;;;28.90;14.80;;;-10.00;56.60;;;;;;5052250;28;20469;-65
2021/01/18 03:41:50;;;;;;;26.47;15.17;;;-9.90;56.60;;;;;;5054172;28;20032;-66
2021/01/18 03:44:16;;;;;;;29.93;15.47;;;-9.90;56.60;;;;;;5055790;28;20025;-66
2021/01/18 03:46:45;;;;;;;25.35;14.55;;;-9.90;56.60;;;;;;5055782;28;20025;-66
2021/01/18 03:49:13;;;;;;;23.73;14.27;;;-9.90;56.50;;;;;;5055870;28;20071;-65
2021/01/18 03:51:39;;;;;;;24.15;13.95;;;-9.90;56.50;;;;;;5055820;28;20090;-66
2021/01/18 03:54:05;;;;;;;19.52;12.18;;;-9.90;56.50;;;;;;5069694;28;20025;-65
2021/01/18 03:56:37;;;;;;;20.15;11.55;;;-9.90;56.60;;;;;;5055687;28;20025;-66
2021/01/18 03:59:02;;;;;;;23.58;11.90;;;-9.90;56.70;;;;;;5055632;28;20021;-66
2021/01/18 04:01:28;;;;;;;20.42;12.07;;;-9.90;56.70;;;;;;5055656;28;20025;-66
2021/01/18 04:03:54;;;;;;;17.98;11.65;;;-9.80;56.70;;;;;;5057419;28;20036;-66
2021/01/18 04:06:19;;;;;;;21.00;11.70;;;-9.90;56.30;;;;;;5067768;28;20036;-66
2021/01/18 04:08:45;;;;;;;20.88;12.68;;;-9.90;56.50;;;;;;5058621;28;20059;-65
2021/01/18 04:11:11;;;;;;;20.63;11.38;;;-10.00;56.40;;;;;;5055267;28;20487;-66
2021/01/18 04:13:36;;;;;;;21.48;11.35;;;-10.00;56.50;;;;;;5054075;28;20021;-66
2021/01/18 04:16:02;;;;;;;19.33;12.23;;;-10.00;56.60;;;;;;5069300;28;20051;-66
2021/01/18 04:18:28;;;;;;;20.80;11.32;;;-10.00;56.60;;;;;;5055117;28;20059;-65
2021/01/18 04:20:54;;;;;;;20.63;10.73;;;-10.00;56.70;;;;;;5055237;28;20043;-65
2021/01/18 04:23:20;;;;;;;19.98;12.38;;;-10.10;56.60;;;;;;5054998;28;20028;-66
2021/01/18 04:25:46;;;;;;;21.67;12.15;;;-10.10;56.60;;;;;;5055015;28;20025;-65
2021/01/18 04:28:11;;;;;;;25.38;13.15;;;-10.10;56.60;;;;;;5053714;28;20033;-66
2021/01/18 04:30:38;;;;;;;24.08;12.52;;;-10.10;56.60;;;;;;5055012;28;20108;-65
2021/01/18 04:33:06;;;;;;;22.17;12.05;;;-10.20;56.50;;;;;;5054861;28;20036;-65
2021/01/18 04:35:34;;;;;;;23.42;12.63;;;-10.30;56.60;;;;;;5053567;28;20049;-65
2021/01/18 04:38:00;;;;;;;19.40;11.40;;;-10.30;56.80;;;;;;5059642;28;20116;-66
2021/01/18 04:40:28;;;;;;;18.75;11.57;;;-10.30;56.90;;;;;;5054661;28;20081;-65
2021/01/18 04:42:54;;;;;;;17.42;11.00;;;-10.30;57.00;;;;;;5053559;28;20547;-65
2021/01/18 04:45:22;;;;;;;17.65;10.70;;;-10.20;57.10;;;;;;5053202;28;20060;-65
2021/01/18 04:47:50;;;;;;;15.75;10.05;;;-10.30;57.10;;;;;;5054660;28;20025;-65
2021/01/18 04:50:17;;;;;;;20.00;10.23;;;-10.20;57.10;;;;;;5054490;28;20032;-65
2021/01/18 04:52:47;;;;;;;18.52;10.65;;;-10.20;57.00;;;;;;5054150;28;20021;-65
2021/01/18 04:55:29;;;;;;;19.85;12.05;;;-10.20;56.80;;;;;;5053125;28;20481;-65
2021/01/18 04:58:14;;;;;;;16.40;10.38;;;-10.20;56.80;;;;;;5054576;28;20033;-65
2021/01/18 05:00:43;;;;;;;19.58;10.60;;;-10.30;56.80;;;;;;5054298;28;20068;-66
2021/01/18 05:03:11;;;;;;;18.85;12.43;;;-10.30;56.80;;;;;;5054412;28;20176;-65
2021/01/18 05:06:05;;;;;;;20.17;11.90;;;-10.30;56.80;;;;;;5054144;28;20029;-65
2021/01/18 05:08:43;;;;;;;18.10;11.57;;;-10.40;57.40;;;;;;5065262;28;20032;-65
2021/01/18 05:11:14;;;;;;;20.27;11.23;;;-10.40;57.00;;;;;;5054175;28;20051;-65
2021/01/18 05:13:40;;;;;;;20.45;10.65;;;-10.40;57.00;;;;;;5054210;28;20469;-65
2021/01/18 05:16:07;;;;;;;19.08;10.85;;;-10.40;57.10;;;;;;5056046;28;20083;-65
2021/01/18 05:18:34;;;;;;;21.60;11.37;;;-10.40;57.10;;;;;;5055919;28;20526;-66
2021/01/18 05:21:03;;;;;;;20.40;10.77;;;-10.40;57.20;;;;;;5054129;28;20033;-66
2021/01/18 05:23:29;;;;;;;18.08;11.38;;;-10.40;57.30;;;;;;5068012;28;20025;-66
2021/01/18 05:26:18;;;;;;;17.98;11.23;;;-10.40;57.50;;;;;;5065228;28;20029;-65
2021/01/18 05:28:47;;;;;;;16.13;10.60;;;-10.40;57.40;;;;;;5059281;28;20078;-65
2021/01/18 05:31:37;;;;;;;20.40;10.30;;;-10.30;57.40;;;;;;5060733;28;20025;-65
2021/01/18 05:34:04;;;;;;;22.20;12.05;;;-10.30;57.40;;;;;;5053358;28;20036;-66
2021/01/18 05:36:40;;;;;;;21.27;12.57;;;-10.30;57.20;;;;;;5053495;28;20049;-65
2021/01/18 05:39:40;;;;;;;25.40;11.50;;;-10.30;57.30;;;;;;5053747;28;20104;-65
2021/01/18 05:42:18;;;;;;;24.92;11.07;;;-10.30;57.30;;;;;;5057907;28;20519;-65
2021/01/18 05:44:44;;;;;;;18.13;10.43;;;-10.30;57.40;;;;;;5061269;28;20031;-65
2021/01/18 05:47:11;;;;;;;16.67;10.48;;;-10.30;57.30;;;;;;5053457;28;20025;-66
2021/01/18 05:49:41;;;;;;;16.23;9.65;;;-10.30;57.30;;;;;;5052346;28;20401;-65
2021/01/18 05:52:28;;;;;;;17.03;10.67;;;-10.20;57.30;;;;;;5053489;28;20115;-65
2021/01/18 05:55:18;;;;;;;16.85;10.35;;;-10.20;57.30;;;;;;5053667;28;20262;-65
2021/01/18 05:57:50;;;;;;;17.48;11.05;;;-10.20;57.30;;;;;;5053446;28;20032;-65
2021/01/18 06:00:33;;;;;;;13.93;9.52;;;-10.20;57.30;;;;;;5052285;28;20032;-65
2021/01/18 06:03:05;;;;;;;16.17;10.35;;;-10.20;57.20;;;;;;5053076;28;20040;-65
2021/01/18 06:05:33;;;;;;;19.50;11.60;;;-10.10;57.40;;;;;;5052547;28;20419;-65
2021/01/18 06:08:08;;;;;;;17.58;11.40;;;-10.10;57.40;;;;;;5053251;28;20036;-65
2021/01/18 06:10:35;;;;;;;18.35;10.70;;;-10.10;57.50;;;;;;5053024;28;20028;-65
2021/01/18 06:13:01;;;;;;;19.88;12.68;;;-10.10;57.40;;;;;;5051742;28;20102;-65
2021/01/18 06:15:27;;;;;;;19.67;10.55;;;-10.10;57.30;;;;;;5053157;28;20044;-65
2021/01/18 06:17:56;;;;;;;22.60;11.82;;;-10.10;57.30;;;;;;5054831;28;20118;-65
2021/01/18 06:20:28;;;;;;;21.73;11.07;;;-10.10;57.30;;;;;;5069326;28;20024;-65
2021/01/18 06:22:55;;;;;;;;;;;-10.10;57.40;;;;;;5070989;28;20031;-65
2021/01/18 06:25:22;;;;;;;19.98;10.75;;;-10.10;57.30;;;;;;5062463;28;19912;-65
2021/01/18 06:27:50;;;;;;;18.58;10.77;;;-10.10;57.40;;;;;;5066384;28;20183;-65
2021/01/18 06:30:21;;;;;;;20.88;12.00;;;-10.10;57.60;;;;;;5061991;28;20117;-65
2021/01/18 06:32:51;;;;;;;;;;;-10.00;57.60;;;;;;5066847;28;20110;-65
2021/01/18 06:35:23;;;;;;;21.88;12.35;;;-10.00;57.50;;;;;;5065370;28;19924;-65
2021/01/18 06:37:54;;;;;;;;;;;-10.00;57.40;;;;;;5068253;28;20020;-65
2021/01/18 06:40:36;;;;;;;21.85;11.18;;;-10.00;57.40;;;;;;5070215;28;19912;-65
2021/01/18 06:43:03;;;;;;;18.65;11.07;;;-10.00;57.40;;;;;;5068004;28;20036;-65
2021/01/18 06:45:40;;;;;;;20.13;11.25;;;-10.00;57.40;;;;;;5067887;28;20051;-65
2021/01/18 06:48:07;;;;;;;26.75;12.60;;;-10.00;57.60;;;;;;5068146;28;20028;-65
2021/01/18 06:50:39;;;;;;;24.98;12.05;;;-10.00;57.30;;;;;;5061657;28;20533;-65
2021/01/18 06:53:10;;;;;;;18.92;11.43;;;-10.00;57.60;;;;;;5069314;28;20032;-65
2021/01/18 06:55:44;;;;;;;19.23;11.35;;;-9.90;57.70;;;;;;5065564;28;20033;-65
2021/01/18 06:58:57;;;;;;;25.98;13.13;;;-9.90;57.70;;;;;;5059900;28;20052;-65
2021/01/18 07:01:30;;;;;;;23.92;13.57;;;-9.90;57.30;;;;;;5048596;28;20087;-65
2021/01/18 07:04:04;;;;;;;28.48;14.35;;;-9.80;57.30;;;;;;5065118;28;20039;-65
2021/01/18 07:06:33;;;;;;;25.00;14.50;;;-9.80;57.20;;;;;;5057498;28;20036;-65
2021/01/18 07:09:01;;;;;;;26.05;13.57;;;-9.90;57.40;;;;;;5053650;28;20150;-65
2021/01/18 07:11:27;;;;;;;28.05;13.43;;;-9.90;57.60;;;;;;5054306;28;20175;-65
2021/01/18 07:13:54;;;;;;;26.52;16.50;;;-9.80;57.60;;;;;;5053605;28;20029;-65
2021/01/18 07:16:22;;;;;;;20.42;13.13;;;-9.80;57.50;;;;;;5057375;28;20637;-65
2021/01/18 07:18:59;;;;;;;25.60;14.07;;;-9.80;57.60;;;;;;5058044;28;20485;-65
2021/01/18 07:21:29;;;;;;;28.73;14.55;;;-9.80;57.60;;;;;;5069072;28;20454;-65
2021/01/18 07:24:01;;;;;;;25.25;13.55;;;-9.80;57.60;;;;;;5064163;28;20044;-65
2021/01/18 07:26:38;;;;;;;22.70;13.63;;;-9.80;57.60;;;;;;5065851;28;20179;-65
2021/01/18 07:29:06;;;;;;;20.77;13.45;;;-9.80;57.60;;;;;;5066092;28;20025;-65
2021/01/18 07:31:42;;;;;;;22.63;12.82;;;-9.70;57.60;;;;;;5066069;28;20021;-65
2021/01/18 07:34:13;;;;;;;22.73;13.88;;;-9.70;57.70;;;;;;5061450;28;20033;-65
2021/01/18 07:36:39;;;;;;;26.70;15.80;;;-9.60;57.70;;;;;;5060858;28;20044;-65
2021/01/18 07:39:24;;;;;;;28.00;15.07;;;-9.60;57.50;;;;;;5063858;28;20683;-65
2021/01/18 07:41:50;;;;;;;30.42;15.75;;;-9.60;57.40;;;;;;5061878;28;20101;-65
2021/01/18 07:44:46;;;;;;;27.40;15.73;;;-9.60;57.20;;;;;;5060767;28;20028;-65
2021/01/18 07:47:14;;;;;;;25.92;14.77;;;-9.60;57.20;;;;;;5064421;28;20025;-65
2021/01/18 07:49:39;;;;;;;33.72;15.77;;;-9.60;57.00;;;;;;5062288;28;20024;-65
2021/01/18 07:52:15;;;;;;;26.25;13.63;;;-9.60;57.20;;;;;;5065508;28;20480;-65
2021/01/18 07:54:41;;;;;;;24.48;14.20;;;-9.60;57.20;;;;;;5063981;28;20032;-65
2021/01/18 07:57:30;;;;;;;24.85;13.07;;;-9.60;57.20;;;;;;5066701;28;20028;-65
2021/01/18 08:00:17;;;;;;;26.33;13.97;;;-9.60;57.10;;;;;;5066000;28;20467;-65
2021/01/18 08:02:47;;;;;;;23.40;11.88;;;-9.60;57.10;;;;;;5060607;28;20030;-65
2021/01/18 08:05:31;;;;;;;20.75;12.02;;;-9.60;57.10;;;;;;5064905;28;20036;-65
2021/01/18 08:08:11;;;;;;;21.60;12.63;;;-9.60;57.10;;;;;;5052772;28;20028;-65
2021/01/18 08:11:06;;;;;;;25.10;13.35;;;-9.60;57.10;;;;;;5058227;28;20024;-65
2021/01/18 08:13:55;;;;;;;24.98;13.07;;;-9.70;57.00;;;;;;5055916;28;20025;-65
2021/01/18 08:16:22;;;;;;;23.13;13.02;;;-9.70;57.10;;;;;;5053874;28;20039;-65
2021/01/18 08:19:23;;;;;;;23.58;12.82;;;-9.70;57.10;;;;;;5057402;28;20068;-65
2021/01/18 08:21:56;;;;;;;24.70;12.68;;;-9.70;57.10;;;;;;5053707;28;20029;-65
2021/01/18 08:24:28;;;;;;;20.23;11.82;;;-9.70;57.10;;;;;;5054859;28;20427;-65
2021/01/18 08:26:58;;;;;;;20.42;11.90;;;-9.80;57.10;;;;;;5054405;28;20025;-65
2021/01/18 08:29:36;;;;;;;22.33;12.45;;;-9.80;57.10;;;;;;5056120;28;20028;-65
2021/01/18 08:32:20;;;;;;;22.55;13.02;;;-9.80;57.20;;;;;;5056127;28;20039;-65
2021/01/18 08:35:07;;;;;;;19.80;11.93;;;-9.80;57.30;;;;;;5059138;28;20064;-66
2021/01/18 08:37:36;;;;;;;19.52;11.82;;;-9.80;57.10;;;;;;5047052;28;20044;-66
2021/01/18 08:40:15;;;;;;;21.35;11.25;;;-9.80;57.10;;;;;;5049845;28;20380;-65
2021/01/18 08:42:43;;;;;;;24.73;13.43;;;-9.80;57.20;;;;;;5053521;28;20074;-65
2021/01/18 08:45:16;;;;;;;19.27;11.98;;;-9.80;57.30;;;;;;5053405;28;20029;-66
2021/01/18 08:47:43;;;;;;;18.55;12.25;;;-9.80;57.20;;;;;;5050696;28;20035;-66
2021/01/18 08:50:30;;;;;;;22.77;12.73;;;-9.80;57.10;;;;;;5047097;28;20040;-66
2021/01/18 08:53:00;;;;;;;21.50;13.07;;;-9.70;57.20;;;;;;5050152;28;20052;-65
2021/01/18 08:55:29;;;;;;;22.50;12.07;;;-9.70;57.40;;;;;;5054801;28;20086;-65
2021/01/18 08:58:04;;;;;;;23.40;13.40;;;-9.70;57.20;;;;;;5053435;28;20591;-65
2021/01/18 09:00:44;;;;;;;23.30;12.70;;;-9.70;57.10;;;;;;5051586;28;20086;-64
2021/01/18 09:03:18;;;;;;;22.33;11.70;;;-9.70;57.10;;;;;;5051029;28;20037;-65
2021/01/18 09:05:58;;;;;;;22.65;11.90;;;-9.70;57.10;;;;;;5060143;28;20770;-65
2021/01/18 09:08:26;;;;;;;20.85;11.55;;;-9.80;57.10;;;;;;5048074;28;20072;-65
2021/01/18 09:10:57;;;;;;;21.85;12.27;;;-9.70;57.30;;;;;;5051975;28;20094;-65
2021/01/18 09:13:24;;;;;;;21.30;11.15;;;-9.70;57.30;;;;;;5056857;28;20102;-65
2021/01/18 09:15:51;;;;;;;23.77;12.30;;;-9.70;57.20;;;;;;5057332;28;20119;-65
2021/01/18 09:18:17;;;;;;;21.92;11.82;;;-9.70;57.40;;;;;;5049963;28;20032;-65
2021/01/18 09:20:44;;;;;;;21.00;11.85;;;-9.70;57.30;;;;;;5058209;28;20039;-65
2021/01/18 09:23:12;;;;;;;23.98;14.10;;;-9.70;57.40;;;;;;5055861;28;20048;-65
2021/01/18 09:25:38;;;;;;;21.75;11.75;;;-9.60;57.20;;;;;;5055043;28;20120;-65
2021/01/18 09:28:09;;;;;;;21.40;13.02;;;-9.60;57.20;;;;;;5054767;28;20115;-65
2021/01/18 09:30:36;;;;;;;20.85;12.32;;;-9.60;57.20;;;;;;5050905;28;20035;-65
2021/01/18 09:33:08;;;;;;;21.02;11.75;;;-9.60;57.20;;;;;;5052276;28;22437;-65
2021/01/18 09:35:36;;;;;;;24.35;12.38;;;-9.60;57.20;;;;;;5051070;28;20125;-65
2021/01/18 09:38:03;;;;;;;21.50;11.98;;;-9.60;57.10;;;;;;5051941;28;20040;-65
2021/01/18 09:40:29;;;;;;;24.10;12.35;;;-9.60;57.10;;;;;;5052440;28;20029;-65
2021/01/18 09:42:55;;;;;;;22.85;13.50;;;-9.60;57.00;;;;;;5047419;28;20043;-65
2021/01/18 09:45:22;;;;;;;18.60;11.95;;;-9.60;57.20;;;;;;5044430;28;20155;-65
2021/01/18 09:47:49;;;;;;;18.50;10.75;;;-9.60;57.20;;;;;;5054641;28;20476;-65
2021/01/18 09:50:19;;;;;;;19.75;11.45;;;-9.60;57.20;;;;;;5054031;28;20429;-66
2021/01/18 09:52:51;;;;;;;19.13;10.53;;;-9.60;57.20;;;;;;5052922;28;20020;-65
2021/01/18 09:55:47;;;;;;;18.42;10.45;;;-9.60;57.20;;;;;;5051409;28;20115;-65
2021/01/18 09:58:19;;;;;;;19.52;10.38;;;-9.50;57.40;;;;;;5053055;28;20117;-65
2021/01/18 10:00:49;;;;;;;16.55;11.10;;;-9.50;57.10;;;;;;5050421;28;20025;-65
2021/01/18 10:03:32;;;;;;;18.40;11.07;;;-9.40;57.10;;;;;;5053477;28;20128;-65
2021/01/18 10:06:08;;;;;;;22.27;13.45;;;-9.40;57.20;;;;;;5052783;28;20107;-65
2021/01/18 10:08:40;;;;;;;21.13;12.52;;;-9.40;57.30;;;;;;5052968;28;20035;-65
2021/01/18 10:11:06;;;;;;;20.55;12.35;;;-9.40;57.20;;;;;;5052261;28;20028;-65
2021/01/18 10:13:32;;;;;;;23.48;12.73;;;-9.40;57.30;;;;;;5054963;28;20044;-65
2021/01/18 10:16:12;;;;;;;24.15;12.32;;;-9.40;57.10;;;;;;5054236;28;20543;-65
2021/01/18 10:18:48;;;;;;;20.67;11.85;;;-9.30;57.20;;;;;;5050355;28;20029;-65
2021/01/18 10:21:14;;;;;;;20.05;10.85;;;-9.30;57.20;;;;;;5042902;28;20039;-65
2021/01/18 10:23:46;;;;;;;16.67;10.82;;;-9.30;57.40;;;;;;5048588;28;20094;-65
2021/01/18 10:26:22;;;;;;;20.80;11.20;;;-9.20;57.60;;;;;;5051453;28;20024;-66
2021/01/18 10:28:51;;;;;;;23.23;11.75;;;-9.20;57.50;;;;;;5050638;28;20028;-65
2021/01/18 10:31:18;;;;;;;17.35;10.55;;;-9.10;57.30;;;;;;5052471;28;20506;-65
2021/01/18 10:33:43;;;;;;;21.42;11.48;;;-9.00;57.30;;;;;;5052887;28;20021;-65
2021/01/18 10:36:09;;;;;;;16.65;11.77;;;-9.00;57.20;;;;;;5050781;28;20381;-64
2021/01/18 10:38:37;;;;;;;20.38;12.10;;;-8.90;57.00;;;;;;5049785;28;20033;-64
2021/01/18 10:41:08;;;;;;;18.80;11.50;;;-8.80;57.10;;;;;;5053022;28;20029;-64
2021/01/18 10:43:34;;;;;;;21.48;11.48;;;-8.80;56.90;;;;;;5052004;28;20024;-65
2021/01/18 10:46:01;;;;;;;20.63;11.32;;;-8.80;56.80;;;;;;5049636;28;20695;-65
2021/01/18 10:48:33;;;;;;;19.83;11.18;;;-8.80;56.60;;;;;;5055596;28;20396;-64
2021/01/18 10:51:02;;;;;;;24.15;11.68;;;-8.80;56.70;;;;;;5061941;28;20027;-65
2021/01/18 10:53:32;;;;;;;23.08;12.13;;;-8.80;56.70;;;;;;5059012;28;20039;-65
2021/01/18 10:56:33;;;;;;;19.88;12.57;;;-8.80;56.70;;;;;;5057003;28;20044;-65
2021/01/18 10:59:00;;;;;;;17.02;10.73;;;-8.90;56.70;;;;;;5036410;28;20044;-64
2021/01/18 11:01:26;;;;;;;20.02;12.05;;;-8.90;56.70;;;;;;5056550;28;20036;-64
2021/01/18 11:03:53;;;;;;;19.60;11.70;;;-8.90;56.80;;;;;;5054480;28;20091;-65
2021/01/18 11:06:22;;;;;;;20.90;11.73;;;-8.90;56.80;;;;;;5060561;28;20043;-65
2021/01/18 11:08:52;;;;;;;20.67;12.15;;;-8.90;56.70;;;;;;5062498;28;20442;-65
2021/01/18 11:11:22;;;;;;;22.55;12.00;;;-8.90;56.60;;;;;;5066882;28;20024;-65
2021/01/18 11:13:57;;;;;;;25.15;13.32;;;-8.90;56.60;;;;;;5065006;28;20024;-64
2021/01/18 11:16:23;;;;;;;25.00;13.07;;;-8.90;56.70;;;;;;5062362;28;20058;-65
2021/01/18 11:18:49;;;;;;;19.65;11.82;;;-9.00;56.80;;;;;;5064230;28;20307;-65
2021/01/18 11:21:25;;;;;;;18.50;10.98;;;-8.90;56.80;;;;;;5067003;28;20107;-64
2021/01/18 11:23:51;;;;;;;17.52;10.40;;;-8.90;56.80;;;;;;5067643;28;20082;-65
2021/01/18 11:26:16;;;;;;;16.00;10.18;;;-8.90;56.90;;;;;;5063006;28;20037;-64
2021/01/18 11:28:42;;;;;;;16.88;10.55;;;-8.90;56.90;;;;;;5059444;28;20020;-64
2021/01/18 11:31:07;;;;;;;19.63;11.10;;;-8.90;56.80;;;;;;5060217;28;20083;-64
2021/01/18 11:33:33;;;;;;;21.45;12.30;;;-8.90;56.80;;;;;;5062180;28;20039;-64
2021/01/18 11:36:00;;;;;;;17.95;11.02;;;-8.90;56.70;;;;;;5065947;28;20048;-64
2021/01/18 11:38:27;;;;;;;15.43;10.23;;;-8.90;56.60;;;;;;5064479;28;20072;-65
2021/01/18 11:40:52;;;;;;;17.67;11.07;;;-8.90;56.70;;;;;;5063216;28;20020;-64
2021/01/18 11:43:18;;;;;;;17.23;9.63;;;-8.90;56.70;;;;;;5060560;28;20303;-64
2021/01/18 11:45:44;;;;;;;16.20;10.45;;;-8.80;56.50;;;;;;5053497;28;20372;-64
2021/01/18 11:48:10;;;;;;;16.90;10.75;;;-8.80;56.50;;;;;;5060456;28;20678;-63
2021/01/18 11:50:36;;;;;;;15.85;9.38;;;-8.80;56.50;;;;;;5065838;28;20024;-65
2021/01/18 11:53:02;;;;;;;16.30;9.13;;;-8.80;56.50;;;;;;5067020;28;20363;-64
2021/01/18 11:55:28;;;;;;;13.40;8.55;;;-8.70;56.50;;;;;;5056178;28;20028;-64
2021/01/18 11:57:54;;;;;;;14.10;8.93;;;-8.70;56.50;;;;;;5058685;28;20115;-63
2021/01/18 12:00:28;;;;;;;16.73;9.95;;;-8.70;56.50;;;;;;5058043;28;20028;-63
2021/01/18 12:02:56;;;;;;;15.48;9.40;;;-8.60;56.60;;;;;;5057521;28;20028;-64
2021/01/18 12:05:27;;;;;;;17.25;9.63;;;-8.60;56.50;;;;;;5065322;28;20093;-63
2021/01/18 12:07:55;;;;;;;18.98;9.77;;;-8.60;56.40;;;;;;5056792;28;20504;-63
2021/01/18 12:10:21;;;;;;;14.02;9.15;;;-8.60;56.30;;;;;;5065457;28;20043;-63
2021/01/18 12:12:46;;;;;;;15.13;9.43;;;-8.50;56.30;;;;;;5051955;28;20056;-64
2021/01/18 12:15:12;;;;;;;19.50;10.65;;;-8.50;56.20;;;;;;5054611;28;20143;-64
2021/01/18 12:17:39;;;;;;;18.85;9.82;;;-8.50;56.30;;;;;;5057346;28;20028;-65
2021/01/18 12:20:08;;;;;;;17.25;8.48;;;-8.50;56.10;;;;;;5057179;28;20033;-65
2021/01/18 12:22:34;;;;;;;13.18;8.57;;;-8.50;55.90;;;;;;5058152;28;20064;-64
2021/01/18 12:24:59;;;;;;;15.40;9.80;;;-8.50;55.90;;;;;;5060226;28;20155;-64
2021/01/18 12:27:25;;;;;;;16.88;10.73;;;-8.50;55.80;;;;;;5060865;28;20186;-64
2021/01/18 12:29:51;;;;;;;17.15;8.93;;;-8.50;55.90;;;;;;5060134;28;20043;-64
2021/01/18 12:32:17;;;;;;;14.10;9.23;;;-8.50;56.00;;;;;;5057537;28;20025;-64
2021/01/18 12:34:43;;;;;;;14.85;9.30;;;-8.50;55.90;;;;;;5059180;28;20111;-67
2021/01/18 12:37:08;;;;;;;17.95;10.43;;;-8.50;56.00;;;;;;5058543;28;20051;-65
2021/01/18 12:39:34;;;;;;;15.93;10.15;;;-8.50;56.00;;;;;;5055361;28;20029;-64
2021/01/18 12:42:02;;;;;;;19.55;11.10;;;-8.40;55.90;;;;;;5055773;28;20400;-65
2021/01/18 12:44:28;;;;;;;15.70;10.63;;;-8.50;55.80;;;;;;5056350;28;20060;-64